sensor_id;sensor_type;location;lat;lon;timestamp;temperature;humidity
1417;DHT22;703;51.162;13.574;2022-12-08T00:09:37;2.40;99.90
1417;DHT22;703;51.162;13.574;2022-12-08T00:12:12;2.40;99.90
1417;DHT22;703;51.162;13.574;2022-12-08T00:14:43;2.40;99.90
1417;DHT22;703;51.162;13.574;2022-12-08T00:17:11;2.50;99.90
1417;DHT22;703;51.162;13.574;2022-12-08T00:19:37;2.50;99.90
1417;DHT22;703;51.162;13.574;2022-12-08T00:22:07;2.50;99.90
1417;DHT22;703;51.162;13.574;2022-12-08T00:24:35;2.50;99.90
1417;DHT22;703;51.162;13.574;2022-12-08T00:27:02;2.40;99.90
1417;DHT22;703;51.162;13.574;2022-12-08T00:34:20;2.50;99.90
1417;DHT22;703;51.162;13.574;2022-12-08T00:36:46;2.50;99.90
1417;DHT22;703;51.162;13.574;2022-12-08T00:39:13;2.50;99.90
1417;DHT22;703;51.162;13.574;2022-12-08T00:41:39;2.50;99.90
1417;DHT22;703;51.162;13.574;2022-12-08T00:51:42;2.40;99.90
1417;DHT22;703;51.162;13.574;2022-12-08T00:54:08;2.40;99.90
1417;DHT22;703;51.162;13.574;2022-12-08T00:59:02;2.40;99.90
1417;DHT22;703;51.162;13.574;2022-12-08T01:01:28;2.40;99.90
1417;DHT22;703;51.162;13.574;2022-12-08T01:06:20;2.40;99.90
1417;DHT22;703;51.162;13.574;2022-12-08T01:08:45;2.30;99.90
1417;DHT22;703;51.162;13.574;2022-12-08T01:11:16;2.30;99.90
1417;DHT22;703;51.162;13.574;2022-12-08T01:13:42;2.40;99.90
1417;DHT22;703;51.162;13.574;2022-12-08T01:16:08;2.30;99.90
1417;DHT22;703;51.162;13.574;2022-12-08T01:18:35;2.20;99.90
1417;DHT22;703;51.162;13.574;2022-12-08T01:21:05;2.10;99.90
1417;DHT22;703;51.162;13.574;2022-12-08T01:26:02;2.00;99.90
1417;DHT22;703;51.162;13.574;2022-12-08T01:30:55;1.90;99.90
1417;DHT22;703;51.162;13.574;2022-12-08T01:33:21;1.90;99.90
1417;DHT22;703;51.162;13.574;2022-12-08T01:35:47;1.80;99.90
1417;DHT22;703;51.162;13.574;2022-12-08T01:48:07;1.70;99.90
1417;DHT22;703;51.162;13.574;2022-12-08T01:53:08;1.60;99.90
1417;DHT22;703;51.162;13.574;2022-12-08T01:55:57;1.40;99.90
1417;DHT22;703;51.162;13.574;2022-12-08T01:58:40;1.30;99.90
1417;DHT22;703;51.162;13.574;2022-12-08T02:03:39;1.30;99.90
1417;DHT22;703;51.162;13.574;2022-12-08T02:08:34;1.20;99.90
1417;DHT22;703;51.162;13.574;2022-12-08T02:11:00;1.10;99.90
1417;DHT22;703;51.162;13.574;2022-12-08T02:13:26;1.10;99.90
1417;DHT22;703;51.162;13.574;2022-12-08T02:19:14;1.00;99.90
1417;DHT22;703;51.162;13.574;2022-12-08T02:22:03;0.90;99.90
1417;DHT22;703;51.162;13.574;2022-12-08T02:24:36;0.90;99.90
1417;DHT22;703;51.162;13.574;2022-12-08T02:30:12;1.00;99.90
1417;DHT22;703;51.162;13.574;2022-12-08T02:39:07;1.10;99.90
1417;DHT22;703;51.162;13.574;2022-12-08T02:41:31;1.10;99.90
1417;DHT22;703;51.162;13.574;2022-12-08T02:46:57;1.20;99.90
1417;DHT22;703;51.162;13.574;2022-12-08T02:49:31;1.30;99.90
1417;DHT22;703;51.162;13.574;2022-12-08T02:52:05;1.30;99.90
1417;DHT22;703;51.162;13.574;2022-12-08T02:54:32;1.40;99.90
1417;DHT22;703;51.162;13.574;2022-12-08T03:00:14;1.30;99.90
1417;DHT22;703;51.162;13.574;2022-12-08T03:05:44;1.20;99.90
1417;DHT22;703;51.162;13.574;2022-12-08T03:08:28;1.30;99.90
1417;DHT22;703;51.162;13.574;2022-12-08T03:11:14;1.40;99.90
1417;DHT22;703;51.162;13.574;2022-12-08T03:13:49;1.50;99.90
1417;DHT22;703;51.162;13.574;2022-12-08T03:16:19;1.50;99.90
1417;DHT22;703;51.162;13.574;2022-12-08T03:19:38;1.50;99.90
1417;DHT22;703;51.162;13.574;2022-12-08T03:24:06;1.60;99.90
1417;DHT22;703;51.162;13.574;2022-12-08T03:26:42;1.60;99.90
1417;DHT22;703;51.162;13.574;2022-12-08T03:29:10;1.60;99.90
1417;DHT22;703;51.162;13.574;2022-12-08T03:31:39;1.60;99.90
1417;DHT22;703;51.162;13.574;2022-12-08T03:34:08;1.60;99.90
1417;DHT22;703;51.162;13.574;2022-12-08T03:36:35;1.60;99.90
1417;DHT22;703;51.162;13.574;2022-12-08T03:39:01;1.60;99.90
1417;DHT22;703;51.162;13.574;2022-12-08T03:41:26;1.80;99.90
1417;DHT22;703;51.162;13.574;2022-12-08T03:43:56;1.90;99.90
1417;DHT22;703;51.162;13.574;2022-12-08T03:46:27;2.00;99.90
1417;DHT22;703;51.162;13.574;2022-12-08T03:48:54;2.00;99.90
1417;DHT22;703;51.162;13.574;2022-12-08T03:51:20;2.00;99.90
1417;DHT22;703;51.162;13.574;2022-12-08T03:53:45;2.00;99.90
1417;DHT22;703;51.162;13.574;2022-12-08T04:01:11;2.10;99.90
1417;DHT22;703;51.162;13.574;2022-12-08T04:15:48;2.40;99.90
1417;DHT22;703;51.162;13.574;2022-12-08T04:18:14;2.40;99.90
1417;DHT22;703;51.162;13.574;2022-12-08T04:20:40;2.40;99.90
1417;DHT22;703;51.162;13.574;2022-12-08T04:23:07;2.50;99.90
1417;DHT22;703;51.162;13.574;2022-12-08T04:35:17;2.50;99.90
1417;DHT22;703;51.162;13.574;2022-12-08T04:40:10;2.40;99.90
1417;DHT22;703;51.162;13.574;2022-12-08T04:45:02;2.40;99.90
1417;DHT22;703;51.162;13.574;2022-12-08T04:52:20;2.40;99.90
1417;DHT22;703;51.162;13.574;2022-12-08T05:14:16;2.00;99.90
1417;DHT22;703;51.162;13.574;2022-12-08T05:24:00;1.80;99.90
1417;DHT22;703;51.162;13.574;2022-12-08T05:26:26;1.80;99.90
1417;DHT22;703;51.162;13.574;2022-12-08T05:28:51;1.80;99.90
1417;DHT22;703;51.162;13.574;2022-12-08T05:31:19;1.80;99.90
1417;DHT22;703;51.162;13.574;2022-12-08T05:33:49;1.80;99.90
1417;DHT22;703;51.162;13.574;2022-12-08T05:36:16;1.70;99.90
1417;DHT22;703;51.162;13.574;2022-12-08T05:38:42;1.60;99.90
1417;DHT22;703;51.162;13.574;2022-12-08T05:41:13;1.60;99.90
1417;DHT22;703;51.162;13.574;2022-12-08T05:43:39;1.50;99.90
1417;DHT22;703;51.162;13.574;2022-12-08T05:48:32;1.50;99.90
1417;DHT22;703;51.162;13.574;2022-12-08T05:50:58;1.40;99.90
1417;DHT22;703;51.162;13.574;2022-12-08T05:58:18;1.40;99.90
1417;DHT22;703;51.162;13.574;2022-12-08T06:00:45;1.30;99.90
1417;DHT22;703;51.162;13.574;2022-12-08T06:03:11;1.30;99.90
1417;DHT22;703;51.162;13.574;2022-12-08T06:05:38;1.30;99.90
1417;DHT22;703;51.162;13.574;2022-12-08T06:20:14;1.50;99.90
1417;DHT22;703;51.162;13.574;2022-12-08T06:27:32;1.70;99.90
1417;DHT22;703;51.162;13.574;2022-12-08T06:34:54;1.90;99.90
1417;DHT22;703;51.162;13.574;2022-12-08T06:44:56;1.90;99.90
1417;DHT22;703;51.162;13.574;2022-12-08T07:14:08;2.10;99.90
1417;DHT22;703;51.162;13.574;2022-12-08T07:19:01;2.00;99.90
1417;DHT22;703;51.162;13.574;2022-12-08T07:31:22;1.70;99.90
1417;DHT22;703;51.162;13.574;2022-12-08T07:33:47;1.80;99.90
1417;DHT22;703;51.162;13.574;2022-12-08T07:36:14;1.80;99.90
1417;DHT22;703;51.162;13.574;2022-12-08T07:38:40;1.90;99.90
1417;DHT22;703;51.162;13.574;2022-12-08T07:41:14;1.80;99.90
1417;DHT22;703;51.162;13.574;2022-12-08T07:43:40;1.80;99.90
1417;DHT22;703;51.162;13.574;2022-12-08T07:46:06;1.80;99.90
1417;DHT22;703;51.162;13.574;2022-12-08T07:51:02;1.70;99.90
1417;DHT22;703;51.162;13.574;2022-12-08T07:53:29;1.80;99.90
1417;DHT22;703;51.162;13.574;2022-12-08T07:55:55;1.80;99.90
1417;DHT22;703;51.162;13.574;2022-12-08T07:58:21;1.80;99.90
1417;DHT22;703;51.162;13.574;2022-12-08T08:00:47;1.80;99.90
1417;DHT22;703;51.162;13.574;2022-12-08T08:08:05;2.00;99.90
1417;DHT22;703;51.162;13.574;2022-12-08T08:13:00;2.10;99.90
1417;DHT22;703;51.162;13.574;2022-12-08T08:15:25;2.00;99.90
1417;DHT22;703;51.162;13.574;2022-12-08T08:17:52;2.00;99.90
1417;DHT22;703;51.162;13.574;2022-12-08T08:20:18;2.00;99.90
1417;DHT22;703;51.162;13.574;2022-12-08T08:22:46;1.90;99.90
1417;DHT22;703;51.162;13.574;2022-12-08T08:25:12;1.90;99.90
1417;DHT22;703;51.162;13.574;2022-12-08T08:30:06;1.90;99.90
1417;DHT22;703;51.162;13.574;2022-12-08T08:32:33;1.90;99.90
1417;DHT22;703;51.162;13.574;2022-12-08T08:34:59;2.00;99.90
1417;DHT22;703;51.162;13.574;2022-12-08T08:37:25;2.10;99.90
1417;DHT22;703;51.162;13.574;2022-12-08T08:44:45;2.60;99.90
1417;DHT22;703;51.162;13.574;2022-12-08T08:52:04;3.00;99.90
1417;DHT22;703;51.162;13.574;2022-12-08T08:54:30;3.10;99.90
1417;DHT22;703;51.162;13.574;2022-12-08T08:56:57;3.40;99.90
1417;DHT22;703;51.162;13.574;2022-12-08T08:59:23;3.50;99.90
1417;DHT22;703;51.162;13.574;2022-12-08T09:01:49;3.60;99.90
1417;DHT22;703;51.162;13.574;2022-12-08T09:04:15;3.70;99.90
1417;DHT22;703;51.162;13.574;2022-12-08T09:16:26;4.00;99.90
1417;DHT22;703;51.162;13.574;2022-12-08T09:18:52;4.10;99.90
1417;DHT22;703;51.162;13.574;2022-12-08T09:21:21;4.10;99.90
1417;DHT22;703;51.162;13.574;2022-12-08T09:23:52;4.10;99.90
1417;DHT22;703;51.162;13.574;2022-12-08T09:26:18;4.20;99.90
1417;DHT22;703;51.162;13.574;2022-12-08T09:28:51;4.30;99.90
1417;DHT22;703;51.162;13.574;2022-12-08T09:31:18;4.60;99.90
1417;DHT22;703;51.162;13.574;2022-12-08T09:33:45;4.80;99.90
1417;DHT22;703;51.162;13.574;2022-12-08T09:38:38;4.90;99.90
1417;DHT22;703;51.162;13.574;2022-12-08T09:41:13;4.90;99.90
1417;DHT22;703;51.162;13.574;2022-12-08T09:46:28;4.90;99.90
1417;DHT22;703;51.162;13.574;2022-12-08T09:48:57;4.90;99.90
1417;DHT22;703;51.162;13.574;2022-12-08T09:51:26;4.90;99.90
1417;DHT22;703;51.162;13.574;2022-12-08T09:54:15;4.80;99.90
1417;DHT22;703;51.162;13.574;2022-12-08T09:56:43;4.80;99.90
1417;DHT22;703;51.162;13.574;2022-12-08T10:01:36;4.90;99.90
1417;DHT22;703;51.162;13.574;2022-12-08T10:04:19;4.90;99.90
1417;DHT22;703;51.162;13.574;2022-12-08T10:15:30;4.70;99.90
1417;DHT22;703;51.162;13.574;2022-12-08T10:18:00;4.70;99.90
1417;DHT22;703;51.162;13.574;2022-12-08T10:20:37;4.70;99.90
1417;DHT22;703;51.162;13.574;2022-12-08T10:25:44;4.50;99.90
1417;DHT22;703;51.162;13.574;2022-12-08T10:28:10;4.50;99.90
1417;DHT22;703;51.162;13.574;2022-12-08T10:33:02;4.50;99.90
1417;DHT22;703;51.162;13.574;2022-12-08T10:35:49;4.40;99.90
1417;DHT22;703;51.162;13.574;2022-12-08T10:38:32;4.40;99.90
1417;DHT22;703;51.162;13.574;2022-12-08T10:43:59;4.60;99.90
1417;DHT22;703;51.162;13.574;2022-12-08T10:46:26;4.70;99.90
1417;DHT22;703;51.162;13.574;2022-12-08T10:51:26;4.80;99.90
1417;DHT22;703;51.162;13.574;2022-12-08T10:56:24;4.80;99.90
1417;DHT22;703;51.162;13.574;2022-12-08T10:59:04;4.90;99.90
1417;DHT22;703;51.162;13.574;2022-12-08T11:01:36;4.90;99.90
1417;DHT22;703;51.162;13.574;2022-12-08T11:04:18;4.90;99.90
1417;DHT22;703;51.162;13.574;2022-12-08T11:06:45;4.90;99.90
1417;DHT22;703;51.162;13.574;2022-12-08T11:11:50;5.10;99.90
1417;DHT22;703;51.162;13.574;2022-12-08T11:20:18;5.40;99.90
1417;DHT22;703;51.162;13.574;2022-12-08T11:22:49;5.70;99.90
1417;DHT22;703;51.162;13.574;2022-12-08T11:25:22;5.80;99.90
1417;DHT22;703;51.162;13.574;2022-12-08T11:27:56;5.70;99.90
1417;DHT22;703;51.162;13.574;2022-12-08T11:30:24;5.90;99.90
1417;DHT22;703;51.162;13.574;2022-12-08T11:33:00;5.90;99.90
1417;DHT22;703;51.162;13.574;2022-12-08T11:35:37;6.10;99.90
1417;DHT22;703;51.162;13.574;2022-12-08T11:38:19;5.90;99.90
1417;DHT22;703;51.162;13.574;2022-12-08T11:40:49;5.80;99.90
1417;DHT22;703;51.162;13.574;2022-12-08T11:43:17;5.60;99.90
1417;DHT22;703;51.162;13.574;2022-12-08T11:45:47;5.60;99.90
1417;DHT22;703;51.162;13.574;2022-12-08T11:50:48;5.50;99.90
1417;DHT22;703;51.162;13.574;2022-12-08T11:53:30;5.50;99.90
1417;DHT22;703;51.162;13.574;2022-12-08T11:56:05;5.50;99.90
1417;DHT22;703;51.162;13.574;2022-12-08T11:58:48;5.50;99.90
1417;DHT22;703;51.162;13.574;2022-12-08T12:01:19;5.50;99.90
1417;DHT22;703;51.162;13.574;2022-12-08T12:04:16;5.60;99.90
1417;DHT22;703;51.162;13.574;2022-12-08T12:20:49;5.90;99.90
1417;DHT22;703;51.162;13.574;2022-12-08T12:23:20;6.00;99.90
1417;DHT22;703;51.162;13.574;2022-12-08T12:25:55;5.80;99.90
1417;DHT22;703;51.162;13.574;2022-12-08T12:28:24;5.50;99.90
1417;DHT22;703;51.162;13.574;2022-12-08T12:31:46;5.70;99.90
1417;DHT22;703;51.162;13.574;2022-12-08T12:33:54;5.80;99.90
1417;DHT22;703;51.162;13.574;2022-12-08T12:38:52;5.70;99.90
1417;DHT22;703;51.162;13.574;2022-12-08T12:41:35;5.70;99.90
1417;DHT22;703;51.162;13.574;2022-12-08T12:57:24;6.00;99.90
1417;DHT22;703;51.162;13.574;2022-12-08T13:02:22;6.20;99.90
1417;DHT22;703;51.162;13.574;2022-12-08T13:05:05;6.10;99.90
1417;DHT22;703;51.162;13.574;2022-12-08T13:07:42;6.00;99.90
1417;DHT22;703;51.162;13.574;2022-12-08T13:20:27;5.50;99.90
1417;DHT22;703;51.162;13.574;2022-12-08T13:28:33;5.20;99.90
1417;DHT22;703;51.162;13.574;2022-12-08T13:39:47;4.90;99.90
1417;DHT22;703;51.162;13.574;2022-12-08T13:47:44;4.60;99.90
1417;DHT22;703;51.162;13.574;2022-12-08T13:50:20;4.60;99.90
1417;DHT22;703;51.162;13.574;2022-12-08T14:00:26;4.50;99.90
1417;DHT22;703;51.162;13.574;2022-12-08T14:02:57;4.60;99.90
1417;DHT22;703;51.162;13.574;2022-12-08T14:05:25;4.60;99.90
1417;DHT22;703;51.162;13.574;2022-12-08T14:07:54;4.50;99.90
1417;DHT22;703;51.162;13.574;2022-12-08T14:10:27;4.50;99.90
1417;DHT22;703;51.162;13.574;2022-12-08T14:12:59;4.50;99.90
1417;DHT22;703;51.162;13.574;2022-12-08T14:15:26;4.50;99.90
1417;DHT22;703;51.162;13.574;2022-12-08T14:17:54;4.50;99.90
1417;DHT22;703;51.162;13.574;2022-12-08T14:20:28;4.50;99.90
1417;DHT22;703;51.162;13.574;2022-12-08T14:22:55;4.50;99.90
1417;DHT22;703;51.162;13.574;2022-12-08T14:25:22;4.50;99.90
1417;DHT22;703;51.162;13.574;2022-12-08T14:27:48;4.50;99.90
1417;DHT22;703;51.162;13.574;2022-12-08T14:30:19;4.50;99.90
1417;DHT22;703;51.162;13.574;2022-12-08T14:37:41;4.40;99.90
1417;DHT22;703;51.162;13.574;2022-12-08T14:40:35;4.40;99.90
1417;DHT22;703;51.162;13.574;2022-12-08T14:48:43;4.40;99.90
1417;DHT22;703;51.162;13.574;2022-12-08T14:54:19;4.20;99.90
1417;DHT22;703;51.162;13.574;2022-12-08T14:56:50;4.30;99.90
1417;DHT22;703;51.162;13.574;2022-12-08T14:59:21;4.20;99.90
1417;DHT22;703;51.162;13.574;2022-12-08T15:01:51;4.10;99.90
1417;DHT22;703;51.162;13.574;2022-12-08T15:04:19;4.10;99.90
1417;DHT22;703;51.162;13.574;2022-12-08T15:07:15;4.10;99.90
1417;DHT22;703;51.162;13.574;2022-12-08T15:09:43;4.10;99.90
1417;DHT22;703;51.162;13.574;2022-12-08T15:15:44;4.00;99.90
1417;DHT22;703;51.162;13.574;2022-12-08T15:17:48;3.90;99.90
1417;DHT22;703;51.162;13.574;2022-12-08T15:20:42;3.90;99.90
1417;DHT22;703;51.162;13.574;2022-12-08T15:23:25;3.80;99.90
1417;DHT22;703;51.162;13.574;2022-12-08T15:25:52;3.70;99.90
1417;DHT22;703;51.162;13.574;2022-12-08T15:28:20;3.70;99.90
1417;DHT22;703;51.162;13.574;2022-12-08T15:30:46;3.60;99.90
1417;DHT22;703;51.162;13.574;2022-12-08T15:33:12;3.60;99.90
1417;DHT22;703;51.162;13.574;2022-12-08T15:35:38;3.50;99.90
1417;DHT22;703;51.162;13.574;2022-12-08T15:38:05;3.30;99.90
1417;DHT22;703;51.162;13.574;2022-12-08T15:40:30;3.30;99.90
1417;DHT22;703;51.162;13.574;2022-12-08T15:42:56;3.20;99.90
1417;DHT22;703;51.162;13.574;2022-12-08T15:45:27;3.10;99.90
1417;DHT22;703;51.162;13.574;2022-12-08T15:47:55;2.90;99.90
1417;DHT22;703;51.162;13.574;2022-12-08T15:50:22;2.90;99.90
1417;DHT22;703;51.162;13.574;2022-12-08T15:52:49;2.90;99.90
1417;DHT22;703;51.162;13.574;2022-12-08T15:55:17;2.80;99.90
1417;DHT22;703;51.162;13.574;2022-12-08T15:57:45;2.90;99.90
1417;DHT22;703;51.162;13.574;2022-12-08T16:02:47;2.90;99.90
1417;DHT22;703;51.162;13.574;2022-12-08T16:05:13;2.90;99.90
1417;DHT22;703;51.162;13.574;2022-12-08T16:07:40;2.90;99.90
1417;DHT22;703;51.162;13.574;2022-12-08T16:10:06;2.90;99.90
1417;DHT22;703;51.162;13.574;2022-12-08T16:12:32;3.00;99.90
1417;DHT22;703;51.162;13.574;2022-12-08T16:15:16;2.90;99.90
1417;DHT22;703;51.162;13.574;2022-12-08T16:17:42;3.00;99.90
1417;DHT22;703;51.162;13.574;2022-12-08T16:20:16;3.00;99.90
1417;DHT22;703;51.162;13.574;2022-12-08T16:22:43;3.10;99.90
1417;DHT22;703;51.162;13.574;2022-12-08T16:27:37;3.00;99.90
1417;DHT22;703;51.162;13.574;2022-12-08T16:30:05;3.10;99.90
1417;DHT22;703;51.162;13.574;2022-12-08T16:32:32;3.10;99.90
1417;DHT22;703;51.162;13.574;2022-12-08T16:37:25;3.10;99.90
1417;DHT22;703;51.162;13.574;2022-12-08T16:39:53;3.10;99.90
1417;DHT22;703;51.162;13.574;2022-12-08T16:42:28;3.10;99.90
1417;DHT22;703;51.162;13.574;2022-12-08T16:47:41;3.10;99.90
1417;DHT22;703;51.162;13.574;2022-12-08T16:50:16;3.10;99.90
1417;DHT22;703;51.162;13.574;2022-12-08T16:52:42;3.10;99.90
1417;DHT22;703;51.162;13.574;2022-12-08T16:55:15;3.20;99.90
1417;DHT22;703;51.162;13.574;2022-12-08T16:57:41;3.20;99.90
1417;DHT22;703;51.162;13.574;2022-12-08T17:00:15;3.20;99.90
1417;DHT22;703;51.162;13.574;2022-12-08T17:02:41;3.30;99.90
1417;DHT22;703;51.162;13.574;2022-12-08T17:07:34;3.40;99.90
1417;DHT22;703;51.162;13.574;2022-12-08T17:10:07;3.50;99.90
1417;DHT22;703;51.162;13.574;2022-12-08T17:12:33;3.50;99.90
1417;DHT22;703;51.162;13.574;2022-12-08T17:15:05;3.50;99.90
1417;DHT22;703;51.162;13.574;2022-12-08T17:17:32;3.50;99.90
1417;DHT22;703;51.162;13.574;2022-12-08T17:20:03;3.50;99.90
1417;DHT22;703;51.162;13.574;2022-12-08T17:22:33;3.60;99.90
1417;DHT22;703;51.162;13.574;2022-12-08T17:25:00;3.50;99.90
1417;DHT22;703;51.162;13.574;2022-12-08T17:37:10;3.50;99.90
1417;DHT22;703;51.162;13.574;2022-12-08T17:39:37;3.50;99.90
1417;DHT22;703;51.162;13.574;2022-12-08T17:42:04;3.40;99.90
1417;DHT22;703;51.162;13.574;2022-12-08T17:44:30;3.50;99.90
1417;DHT22;703;51.162;13.574;2022-12-08T17:47:00;3.50;99.90
1417;DHT22;703;51.162;13.574;2022-12-08T17:49:28;3.40;99.90
1417;DHT22;703;51.162;13.574;2022-12-08T17:51:59;3.50;99.90
1417;DHT22;703;51.162;13.574;2022-12-08T17:54:26;3.40;99.90
1417;DHT22;703;51.162;13.574;2022-12-08T17:56:52;3.50;99.90
1417;DHT22;703;51.162;13.574;2022-12-08T17:59:18;3.50;99.90
1417;DHT22;703;51.162;13.574;2022-12-08T18:01:44;3.50;99.90
1417;DHT22;703;51.162;13.574;2022-12-08T18:04:11;3.50;99.90
1417;DHT22;703;51.162;13.574;2022-12-08T18:06:38;3.40;99.90
1417;DHT22;703;51.162;13.574;2022-12-08T18:09:05;3.40;99.90
1417;DHT22;703;51.162;13.574;2022-12-08T18:11:32;3.40;99.90
1417;DHT22;703;51.162;13.574;2022-12-08T18:13:58;3.50;99.90
1417;DHT22;703;51.162;13.574;2022-12-08T18:16:25;3.50;99.90
1417;DHT22;703;51.162;13.574;2022-12-08T18:18:52;3.50;99.90
1417;DHT22;703;51.162;13.574;2022-12-08T18:21:19;3.50;99.90
1417;DHT22;703;51.162;13.574;2022-12-08T18:23:45;3.50;99.90
1417;DHT22;703;51.162;13.574;2022-12-08T18:26:12;3.50;99.90
1417;DHT22;703;51.162;13.574;2022-12-08T18:28:39;3.50;99.90
1417;DHT22;703;51.162;13.574;2022-12-08T18:31:10;3.60;99.90
1417;DHT22;703;51.162;13.574;2022-12-08T18:33:36;3.60;99.90
1417;DHT22;703;51.162;13.574;2022-12-08T18:36:10;3.60;99.90
1417;DHT22;703;51.162;13.574;2022-12-08T18:38:37;3.70;99.90
1417;DHT22;703;51.162;13.574;2022-12-08T18:41:08;3.60;99.90
1417;DHT22;703;51.162;13.574;2022-12-08T18:43:34;3.60;99.90
1417;DHT22;703;51.162;13.574;2022-12-08T18:46:03;3.50;99.90
1417;DHT22;703;51.162;13.574;2022-12-08T18:48:29;3.60;99.90
1417;DHT22;703;51.162;13.574;2022-12-08T18:53:21;3.60;99.90
1417;DHT22;703;51.162;13.574;2022-12-08T18:58:15;3.60;99.90
1417;DHT22;703;51.162;13.574;2022-12-08T19:03:08;3.60;99.90
1417;DHT22;703;51.162;13.574;2022-12-08T19:05:34;3.60;99.90
1417;DHT22;703;51.162;13.574;2022-12-08T19:08:00;3.60;99.90
1417;DHT22;703;51.162;13.574;2022-12-08T19:15:19;3.60;99.90
1417;DHT22;703;51.162;13.574;2022-12-08T19:17:45;3.60;99.90
1417;DHT22;703;51.162;13.574;2022-12-08T19:20:11;3.60;99.90
1417;DHT22;703;51.162;13.574;2022-12-08T19:22:37;3.70;99.90
1417;DHT22;703;51.162;13.574;2022-12-08T19:25:03;3.60;99.90
1417;DHT22;703;51.162;13.574;2022-12-08T19:29:58;3.60;99.90
1417;DHT22;703;51.162;13.574;2022-12-08T19:32:24;3.70;99.90
1417;DHT22;703;51.162;13.574;2022-12-08T19:34:50;3.70;99.90
1417;DHT22;703;51.162;13.574;2022-12-08T19:37:16;3.70;99.90
1417;DHT22;703;51.162;13.574;2022-12-08T19:42:26;3.70;99.90
1417;DHT22;703;51.162;13.574;2022-12-08T19:45:16;3.70;99.90
1417;DHT22;703;51.162;13.574;2022-12-08T19:47:43;3.70;99.90
1417;DHT22;703;51.162;13.574;2022-12-08T19:50:11;3.60;99.90
1417;DHT22;703;51.162;13.574;2022-12-08T19:55:23;3.50;99.90
1417;DHT22;703;51.162;13.574;2022-12-08T19:57:50;3.40;99.90
1417;DHT22;703;51.162;13.574;2022-12-08T20:00:20;3.40;99.90
1417;DHT22;703;51.162;13.574;2022-12-08T20:02:46;3.30;99.90
1417;DHT22;703;51.162;13.574;2022-12-08T20:05:13;3.20;99.90
1417;DHT22;703;51.162;13.574;2022-12-08T20:07:39;3.20;99.90
1417;DHT22;703;51.162;13.574;2022-12-08T20:10:11;3.10;99.90
1417;DHT22;703;51.162;13.574;2022-12-08T20:12:38;3.10;99.90
1417;DHT22;703;51.162;13.574;2022-12-08T20:15:05;3.10;99.90
1417;DHT22;703;51.162;13.574;2022-12-08T20:17:31;3.00;99.90
1417;DHT22;703;51.162;13.574;2022-12-08T20:19:56;3.00;99.90
1417;DHT22;703;51.162;13.574;2022-12-08T20:27:14;2.80;99.90
1417;DHT22;703;51.162;13.574;2022-12-08T20:29:40;2.80;99.90
1417;DHT22;703;51.162;13.574;2022-12-08T20:32:06;2.70;99.90
1417;DHT22;703;51.162;13.574;2022-12-08T20:36:59;2.60;99.90
1417;DHT22;703;51.162;13.574;2022-12-08T20:39:24;2.60;99.90
1417;DHT22;703;51.162;13.574;2022-12-08T20:44:18;2.50;99.90
1417;DHT22;703;51.162;13.574;2022-12-08T20:46:47;2.50;99.90
1417;DHT22;703;51.162;13.574;2022-12-08T20:49:13;2.50;99.90
1417;DHT22;703;51.162;13.574;2022-12-08T20:59:00;2.50;99.90
1417;DHT22;703;51.162;13.574;2022-12-08T21:01:25;2.50;99.90
1417;DHT22;703;51.162;13.574;2022-12-08T21:03:51;2.50;99.90
1417;DHT22;703;51.162;13.574;2022-12-08T21:06:24;2.50;99.90
1417;DHT22;703;51.162;13.574;2022-12-08T21:08:52;2.50;99.90
1417;DHT22;703;51.162;13.574;2022-12-08T21:11:18;2.50;99.90
1417;DHT22;703;51.162;13.574;2022-12-08T21:13:44;2.50;99.90
1417;DHT22;703;51.162;13.574;2022-12-08T21:16:14;2.40;99.90
1417;DHT22;703;51.162;13.574;2022-12-08T21:18:41;2.40;99.90
1417;DHT22;703;51.162;13.574;2022-12-08T21:21:12;2.30;99.90
1417;DHT22;703;51.162;13.574;2022-12-08T21:23:39;2.30;99.90
1417;DHT22;703;51.162;13.574;2022-12-08T21:26:17;2.40;99.90
1417;DHT22;703;51.162;13.574;2022-12-08T21:28:44;2.30;99.90
1417;DHT22;703;51.162;13.574;2022-12-08T21:31:15;2.30;99.90
1417;DHT22;703;51.162;13.574;2022-12-08T21:33:42;2.30;99.90
1417;DHT22;703;51.162;13.574;2022-12-08T21:36:11;2.20;99.90
1417;DHT22;703;51.162;13.574;2022-12-08T21:38:38;2.30;99.90
1417;DHT22;703;51.162;13.574;2022-12-08T21:41:16;2.20;99.90
1417;DHT22;703;51.162;13.574;2022-12-08T21:46:29;2.20;99.90
1417;DHT22;703;51.162;13.574;2022-12-08T21:51:20;2.20;99.90
1417;DHT22;703;51.162;13.574;2022-12-08T22:01:09;2.20;99.90
1417;DHT22;703;51.162;13.574;2022-12-08T22:03:36;2.20;99.90
1417;DHT22;703;51.162;13.574;2022-12-08T22:06:06;2.10;99.90
1417;DHT22;703;51.162;13.574;2022-12-08T22:13:25;2.10;99.90
1417;DHT22;703;51.162;13.574;2022-12-08T22:15:58;2.10;99.90
1417;DHT22;703;51.162;13.574;2022-12-08T22:18:24;2.00;99.90
1417;DHT22;703;51.162;13.574;2022-12-08T22:20:50;2.00;99.90
1417;DHT22;703;51.162;13.574;2022-12-08T22:23:16;2.00;99.90
1417;DHT22;703;51.162;13.574;2022-12-08T22:25:42;2.00;99.90
1417;DHT22;703;51.162;13.574;2022-12-08T22:28:09;2.00;99.90
1417;DHT22;703;51.162;13.574;2022-12-08T22:30:34;2.00;99.90
1417;DHT22;703;51.162;13.574;2022-12-08T22:33:00;2.00;99.90
1417;DHT22;703;51.162;13.574;2022-12-08T22:59:46;2.10;99.90
1417;DHT22;703;51.162;13.574;2022-12-08T23:02:13;2.00;99.90
1417;DHT22;703;51.162;13.574;2022-12-08T23:04:38;2.00;99.90
1417;DHT22;703;51.162;13.574;2022-12-08T23:11:56;1.90;99.90
1417;DHT22;703;51.162;13.574;2022-12-08T23:14:22;1.90;99.90
1417;DHT22;703;51.162;13.574;2022-12-08T23:16:48;2.00;99.90
1417;DHT22;703;51.162;13.574;2022-12-08T23:26:32;1.90;99.90
1417;DHT22;703;51.162;13.574;2022-12-08T23:28:59;1.90;99.90
1417;DHT22;703;51.162;13.574;2022-12-08T23:31:25;1.90;99.90
1417;DHT22;703;51.162;13.574;2022-12-08T23:33:52;1.90;99.90
1417;DHT22;703;51.162;13.574;2022-12-08T23:36:19;1.90;99.90
1417;DHT22;703;51.162;13.574;2022-12-08T23:38:46;1.90;99.90
1417;DHT22;703;51.162;13.574;2022-12-08T23:41:13;2.00;99.90
1417;DHT22;703;51.162;13.574;2022-12-08T23:43:47;1.90;99.90
1417;DHT22;703;51.162;13.574;2022-12-08T23:46:14;1.90;99.90
1417;DHT22;703;51.162;13.574;2022-12-08T23:56:07;1.90;99.90
1417;DHT22;703;51.162;13.574;2022-12-08T23:58:34;2.00;99.90
